Historique des mesures à Cassis (13260), France
Quotidien Résumé Janvier 4, 2017 Unités:  Métrique    US   Métrique/US
« Précédent (Jour)
Suivant (Jour) »
Quotidien Hebdomadaire Mensuel Annuel Période au choix
  Maximum: Minimum: Moyenne:
Température: TemperatureC °C 6.1 °C 8.1 °C
Point de rosée: DewpointC °C -6.8 °C -1.5 °C
Humidité: Humidity % 29 % 49 %
Vitesse du vent: 0 km/h 0 km/h 24 km/h
Rafales: 0 km/h - -
Vent:- - SSW
Pression: PressurehPa hPa 1009.4 hPa -
Précipitations: 0.0 mm    
Historical Graphs
 
 
Mesures pour : Janvier 4, 2017
Heure Temperature Point de rosée Pression Vent Vitesse du vent Rafales Humidité Pluie (par heure) Conditions
TemperatureC °C DewpointC °C PressurehPa hPa Calm     Humidity % HourlyPrecipMM mm SoftwareType W/m2
00:11 9.1 °C 1.6 °C 1018.5 hPa NE 6.4 km/h 6.4 km/h 59 % 0.0 mm open2300-1.11 W/m2
01:10 8.7 °C 0.9 °C 1018.5 hPa North 6.9 km/h 13.2 km/h 58 % 0.0 mm open2300-1.11 W/m2
02:11 8.5 °C 0.4 °C 1018.2 hPa NE 9.3 km/h 9.3 km/h 57 % 0.0 mm open2300-1.11 W/m2
03:10 8.1 °C 0.3 °C 1017.8 hPa Calm   15 km/h 58 % 0.0 mm open2300-1.11 W/m2
04:11 7.9 °C 0.4 °C 1017.8 hPa NW 8.9 km/h 9.8 km/h 59 % 0.0 mm open2300-1.11 W/m2
05:10 7.8 °C 0.3 °C 1016.8 hPa NNW 5.1 km/h 5.1 km/h 59 % 0.0 mm open2300-1.11 W/m2
06:12 7.5 °C 0.4 °C 1016.5 hPa NW 10.9 km/h 10.9 km/h 61 % 0.0 mm open2300-1.11 W/m2
07:10 7.4 °C 0.8 °C 1016.1 hPa NW 17.9 km/h 22 km/h 63 % 0.0 mm open2300-1.11 W/m2
08:11 7.2 °C 0.8 °C 1015.8 hPa NNW 10.3 km/h 19.6 km/h 64 % 0.0 mm open2300-1.11 W/m2
09:10 7.0 °C 0.8 °C 1015.5 hPa North 10.9 km/h 17.9 km/h 65 % 0.0 mm open2300-1.11 W/m2
10:11 6.1 °C -0.7 °C 1015.5 hPa WNW 15 km/h 20.3 km/h 62 % 0.0 mm open2300-1.11 W/m2
11:10 7.1 °C -0.3 °C 1014.4 hPa NNE 17.9 km/h 17.9 km/h 59 % 0.0 mm open2300-1.11 W/m2
12:11 8.1 °C -0.7 °C 1013.4 hPa East 13.2 km/h 25.4 km/h 54 % 0.0 mm open2300-1.11 W/m2
13:10 9.3 °C -2.4 °C 1012.8 hPa NW 36.5 km/h 51 km/h 44 % 0.0 mm open2300-1.11 W/m2
14:11 11.1 °C -2.8 °C 1011.4 hPa NNW 24.3 km/h 26.7 km/h 38 % 0.0 mm open2300-1.11 W/m2
15:10 12.2 °C -4.4 °C 1010.7 hPa NNE 41.2 km/h 49.2 km/h 31 % 0.0 mm open2300-1.11 W/m2
16:11 11.3 °C -5.3 °C 1010.7 hPa NNW 33.2 km/h 36.5 km/h 31 % 0.0 mm open2300-1.11 W/m2
17:10 10.5 °C -6.3 °C 1010.0 hPa NNW 51.5 km/h 56.6 km/h 30 % 0.0 mm open2300-1.11 W/m2
18:11 10.6 °C -6.8 °C 1010.0 hPa NNW 46.8 km/h 52 km/h 29 % 0.0 mm open2300-1.11 W/m2
19:10 9.5 °C -5.7 °C 1010.0 hPa NNE 40.7 km/h 108.8 km/h 34 % 0.0 mm open2300-1.11 W/m2
20:11 8.5 °C -4.7 °C 1009.4 hPa NNW 33.6 km/h 52.8 km/h 39 % 0.0 mm open2300-1.11 W/m2
21:10 7.1 °C -2.3 °C 1009.4 hPa North 46.8 km/h 51 km/h 51 % 0.0 mm open2300-1.11 W/m2
22:11 6.6 °C -1.3 °C 1009.4 hPa NNW 51 km/h 61.3 km/h 57 % 0.0 mm open2300-1.11 W/m2
23:10 6.2 °C -1.0 °C 1010.0 hPa North 60.3 km/h 104.3 km/h 60 % 0.0 mm open2300-1.11 W/m2
Observations météo à CASSIS
WU-History script by Weather Underground - 1 mb